sensor_id;sensor_type;location;lat;lon;timestamp;P1;durP1;ratioP1;P2;durP2;ratioP2
72319;SDS011;60269;52.502;16.732;2023-03-12T00:00:55;6.23;;;1.10;;
72319;SDS011;60269;52.502;16.732;2023-03-12T00:04:38;5.63;;;0.70;;
72319;SDS011;60269;52.502;16.732;2023-03-12T00:08:11;3.80;;;0.80;;
72319;SDS011;60269;52.502;16.732;2023-03-12T00:11:48;3.22;;;0.52;;
72319;SDS011;60269;52.502;16.732;2023-03-12T00:15:21;2.73;;;0.50;;
72319;SDS011;60269;52.502;16.732;2023-03-12T00:18:54;3.65;;;0.50;;
72319;SDS011;60269;52.502;16.732;2023-03-12T00:22:27;5.15;;;0.75;;
72319;SDS011;60269;52.502;16.732;2023-03-12T00:26:04;3.43;;;0.60;;
72319;SDS011;60269;52.502;16.732;2023-03-12T00:29:38;9.63;;;1.60;;
72319;SDS011;60269;52.502;16.732;2023-03-12T00:33:11;6.53;;;1.00;;
72319;SDS011;60269;52.502;16.732;2023-03-12T00:36:43;3.63;;;0.70;;
72319;SDS011;60269;52.502;16.732;2023-03-12T00:40:18;3.83;;;0.77;;
72319;SDS011;60269;52.502;16.732;2023-03-12T00:43:50;2.70;;;0.93;;
72319;SDS011;60269;52.502;16.732;2023-03-12T00:47:23;5.60;;;1.23;;
72319;SDS011;60269;52.502;16.732;2023-03-12T00:50:56;5.27;;;0.87;;
72319;SDS011;60269;52.502;16.732;2023-03-12T00:54:29;1.52;;;0.30;;
72319;SDS011;60269;52.502;16.732;2023-03-12T00:58:02;3.33;;;0.77;;
72319;SDS011;60269;52.502;16.732;2023-03-12T01:01:34;2.03;;;0.47;;
72319;SDS011;60269;52.502;16.732;2023-03-12T01:05:07;3.85;;;0.50;;
72319;SDS011;60269;52.502;16.732;2023-03-12T01:08:41;3.33;;;1.00;;
72319;SDS011;60269;52.502;16.732;2023-03-12T01:12:14;2.07;;;0.50;;
72319;SDS011;60269;52.502;16.732;2023-03-12T01:15:48;1.88;;;0.30;;
72319;SDS011;60269;52.502;16.732;2023-03-12T01:19:22;2.20;;;0.57;;
72319;SDS011;60269;52.502;16.732;2023-03-12T01:22:54;2.40;;;0.45;;
72319;SDS011;60269;52.502;16.732;2023-03-12T01:26:26;3.70;;;0.63;;
72319;SDS011;60269;52.502;16.732;2023-03-12T01:29:58;3.08;;;0.55;;
72319;SDS011;60269;52.502;16.732;2023-03-12T01:33:31;3.50;;;0.50;;
72319;SDS011;60269;52.502;16.732;2023-03-12T01:37:04;2.20;;;0.43;;
72319;SDS011;60269;52.502;16.732;2023-03-12T01:40:41;4.13;;;0.50;;
72319;SDS011;60269;52.502;16.732;2023-03-12T01:44:13;3.05;;;0.43;;
72319;SDS011;60269;52.502;16.732;2023-03-12T01:47:46;3.20;;;0.80;;
72319;SDS011;60269;52.502;16.732;2023-03-12T01:51:18;4.28;;;0.50;;
72319;SDS011;60269;52.502;16.732;2023-03-12T01:58:44;2.28;;;0.50;;
72319;SDS011;60269;52.502;16.732;2023-03-12T02:02:20;2.87;;;0.30;;
72319;SDS011;60269;52.502;16.732;2023-03-12T02:06:07;1.25;;;0.32;;
72319;SDS011;60269;52.502;16.732;2023-03-12T02:09:45;3.08;;;0.45;;
72319;SDS011;60269;52.502;16.732;2023-03-12T02:13:19;3.93;;;0.60;;
72319;SDS011;60269;52.502;16.732;2023-03-12T02:16:52;2.95;;;0.60;;
72319;SDS011;60269;52.502;16.732;2023-03-12T02:20:44;2.70;;;0.60;;
72319;SDS011;60269;52.502;16.732;2023-03-12T02:28:27;2.70;;;0.50;;
72319;SDS011;60269;52.502;16.732;2023-03-12T02:32:00;2.42;;;0.55;;
72319;SDS011;60269;52.502;16.732;2023-03-12T02:35:35;5.50;;;0.45;;
72319;SDS011;60269;52.502;16.732;2023-03-12T02:39:09;4.07;;;0.40;;
72319;SDS011;60269;52.502;16.732;2023-03-12T02:42:42;5.47;;;0.77;;
72319;SDS011;60269;52.502;16.732;2023-03-12T02:46:18;3.70;;;0.57;;
72319;SDS011;60269;52.502;16.732;2023-03-12T02:49:51;4.87;;;0.63;;
72319;SDS011;60269;52.502;16.732;2023-03-12T02:53:24;1.08;;;0.30;;
72319;SDS011;60269;52.502;16.732;2023-03-12T02:56:56;4.65;;;0.70;;
72319;SDS011;60269;52.502;16.732;2023-03-12T03:00:30;1.37;;;0.30;;
72319;SDS011;60269;52.502;16.732;2023-03-12T03:04:03;4.68;;;0.50;;
72319;SDS011;60269;52.502;16.732;2023-03-12T03:07:37;2.10;;;0.20;;
72319;SDS011;60269;52.502;16.732;2023-03-12T03:11:10;6.70;;;0.57;;
72319;SDS011;60269;52.502;16.732;2023-03-12T03:14:43;1.40;;;0.27;;
72319;SDS011;60269;52.502;16.732;2023-03-12T03:18:15;5.13;;;1.20;;
72319;SDS011;60269;52.502;16.732;2023-03-12T03:21:47;3.80;;;0.22;;
72319;SDS011;60269;52.502;16.732;2023-03-12T03:25:21;2.43;;;0.30;;
72319;SDS011;60269;52.502;16.732;2023-03-12T03:28:54;0.95;;;0.20;;
72319;SDS011;60269;52.502;16.732;2023-03-12T03:32:26;3.58;;;0.30;;
72319;SDS011;60269;52.502;16.732;2023-03-12T03:35:58;2.27;;;0.63;;
72319;SDS011;60269;52.502;16.732;2023-03-12T03:39:33;1.45;;;0.20;;
72319;SDS011;60269;52.502;16.732;2023-03-12T03:43:05;2.53;;;0.60;;
72319;SDS011;60269;52.502;16.732;2023-03-12T03:46:37;1.40;;;0.10;;
72319;SDS011;60269;52.502;16.732;2023-03-12T03:50:10;3.33;;;0.70;;
72319;SDS011;60269;52.502;16.732;2023-03-12T03:53:43;2.70;;;0.70;;
72319;SDS011;60269;52.502;16.732;2023-03-12T03:57:17;6.25;;;0.68;;
72319;SDS011;60269;52.502;16.732;2023-03-12T04:00:50;4.30;;;0.50;;
72319;SDS011;60269;52.502;16.732;2023-03-12T04:04:22;1.35;;;0.30;;
72319;SDS011;60269;52.502;16.732;2023-03-12T04:07:55;3.30;;;0.40;;
72319;SDS011;60269;52.502;16.732;2023-03-12T04:11:27;2.03;;;0.40;;
72319;SDS011;60269;52.502;16.732;2023-03-12T04:14:59;2.03;;;0.30;;
72319;SDS011;60269;52.502;16.732;2023-03-12T04:18:31;1.73;;;0.25;;
72319;SDS011;60269;52.502;16.732;2023-03-12T04:22:03;2.55;;;0.50;;
72319;SDS011;60269;52.502;16.732;2023-03-12T04:25:36;1.50;;;0.37;;
72319;SDS011;60269;52.502;16.732;2023-03-12T04:29:08;1.75;;;0.45;;
72319;SDS011;60269;52.502;16.732;2023-03-12T04:32:41;4.25;;;0.30;;
72319;SDS011;60269;52.502;16.732;2023-03-12T04:36:13;1.00;;;0.30;;
72319;SDS011;60269;52.502;16.732;2023-03-12T04:39:47;3.70;;;0.63;;
72319;SDS011;60269;52.502;16.732;2023-03-12T04:43:19;2.70;;;0.30;;
72319;SDS011;60269;52.502;16.732;2023-03-12T04:46:51;2.20;;;0.50;;
72319;SDS011;60269;52.502;16.732;2023-03-12T04:50:24;1.55;;;0.20;;
72319;SDS011;60269;52.502;16.732;2023-03-12T04:53:56;1.55;;;0.28;;
72319;SDS011;60269;52.502;16.732;2023-03-12T04:57:29;4.03;;;0.82;;
72319;SDS011;60269;52.502;16.732;2023-03-12T05:01:01;2.23;;;0.33;;
72319;SDS011;60269;52.502;16.732;2023-03-12T05:04:35;3.33;;;0.40;;
72319;SDS011;60269;52.502;16.732;2023-03-12T05:08:07;1.83;;;0.47;;
72319;SDS011;60269;52.502;16.732;2023-03-12T05:11:39;2.27;;;0.33;;
72319;SDS011;60269;52.502;16.732;2023-03-12T05:15:11;2.08;;;0.25;;
72319;SDS011;60269;52.502;16.732;2023-03-12T05:18:43;2.63;;;0.50;;
72319;SDS011;60269;52.502;16.732;2023-03-12T05:22:19;1.47;;;0.20;;
72319;SDS011;60269;52.502;16.732;2023-03-12T05:25:51;2.45;;;0.55;;
72319;SDS011;60269;52.502;16.732;2023-03-12T05:29:23;1.65;;;0.30;;
72319;SDS011;60269;52.502;16.732;2023-03-12T05:32:55;5.55;;;0.80;;
72319;SDS011;60269;52.502;16.732;2023-03-12T05:36:27;6.87;;;0.60;;
72319;SDS011;60269;52.502;16.732;2023-03-12T05:40:00;3.42;;;0.50;;
72319;SDS011;60269;52.502;16.732;2023-03-12T05:43:34;1.52;;;0.20;;
72319;SDS011;60269;52.502;16.732;2023-03-12T05:47:10;2.77;;;0.40;;
72319;SDS011;60269;52.502;16.732;2023-03-12T05:50:53;5.22;;;0.60;;
72319;SDS011;60269;52.502;16.732;2023-03-12T05:54:26;15.88;;;1.05;;
72319;SDS011;60269;52.502;16.732;2023-03-12T05:58:01;1.67;;;0.27;;
72319;SDS011;60269;52.502;16.732;2023-03-12T06:01:33;2.72;;;0.60;;
72319;SDS011;60269;52.502;16.732;2023-03-12T06:05:07;7.15;;;0.52;;
72319;SDS011;60269;52.502;16.732;2023-03-12T06:08:41;1.27;;;0.20;;
72319;SDS011;60269;52.502;16.732;2023-03-12T06:12:13;5.87;;;0.70;;
72319;SDS011;60269;52.502;16.732;2023-03-12T06:15:45;4.70;;;1.30;;
72319;SDS011;60269;52.502;16.732;2023-03-12T06:19:17;5.40;;;0.55;;
72319;SDS011;60269;52.502;16.732;2023-03-12T06:22:49;2.03;;;0.40;;
72319;SDS011;60269;52.502;16.732;2023-03-12T06:26:22;3.38;;;0.55;;
72319;SDS011;60269;52.502;16.732;2023-03-12T06:29:57;5.82;;;0.82;;
72319;SDS011;60269;52.502;16.732;2023-03-12T06:33:30;7.03;;;1.23;;
72319;SDS011;60269;52.502;16.732;2023-03-12T06:37:02;3.08;;;0.65;;
72319;SDS011;60269;52.502;16.732;2023-03-12T06:40:34;6.65;;;0.80;;
72319;SDS011;60269;52.502;16.732;2023-03-12T06:44:06;4.85;;;0.90;;
72319;SDS011;60269;52.502;16.732;2023-03-12T06:47:38;2.53;;;0.70;;
72319;SDS011;60269;52.502;16.732;2023-03-12T06:51:11;5.95;;;0.90;;
72319;SDS011;60269;52.502;16.732;2023-03-12T06:54:44;2.05;;;0.50;;
72319;SDS011;60269;52.502;16.732;2023-03-12T06:58:17;5.07;;;0.80;;
72319;SDS011;60269;52.502;16.732;2023-03-12T07:01:50;4.75;;;0.70;;
72319;SDS011;60269;52.502;16.732;2023-03-12T07:05:23;2.38;;;0.60;;
72319;SDS011;60269;52.502;16.732;2023-03-12T07:09:00;5.37;;;0.73;;
72319;SDS011;60269;52.502;16.732;2023-03-12T07:12:32;2.97;;;0.73;;
72319;SDS011;60269;52.502;16.732;2023-03-12T07:16:04;4.70;;;0.80;;
72319;SDS011;60269;52.502;16.732;2023-03-12T07:19:37;2.50;;;0.73;;
72319;SDS011;60269;52.502;16.732;2023-03-12T07:23:10;6.27;;;0.73;;
72319;SDS011;60269;52.502;16.732;2023-03-12T07:26:42;1.85;;;0.25;;
72319;SDS011;60269;52.502;16.732;2023-03-12T07:30:15;4.22;;;0.60;;
72319;SDS011;60269;52.502;16.732;2023-03-12T07:33:48;2.10;;;0.30;;
72319;SDS011;60269;52.502;16.732;2023-03-12T07:37:23;4.53;;;0.50;;
72319;SDS011;60269;52.502;16.732;2023-03-12T07:40:56;4.95;;;0.60;;
72319;SDS011;60269;52.502;16.732;2023-03-12T07:44:29;2.63;;;0.40;;
72319;SDS011;60269;52.502;16.732;2023-03-12T07:48:02;2.28;;;0.40;;
72319;SDS011;60269;52.502;16.732;2023-03-12T07:51:37;1.88;;;0.20;;
72319;SDS011;60269;52.502;16.732;2023-03-12T07:55:10;1.65;;;0.30;;
72319;SDS011;60269;52.502;16.732;2023-03-12T07:58:43;2.80;;;0.20;;
72319;SDS011;60269;52.502;16.732;2023-03-12T08:02:17;2.03;;;0.30;;
72319;SDS011;60269;52.502;16.732;2023-03-12T08:06:00;3.33;;;0.40;;
72319;SDS011;60269;52.502;16.732;2023-03-12T08:09:34;2.93;;;0.50;;
72319;SDS011;60269;52.502;16.732;2023-03-12T08:13:06;1.63;;;0.30;;
72319;SDS011;60269;52.502;16.732;2023-03-12T08:16:39;2.72;;;0.30;;
72319;SDS011;60269;52.502;16.732;2023-03-12T08:20:12;3.07;;;0.40;;
72319;SDS011;60269;52.502;16.732;2023-03-12T08:23:46;2.65;;;0.20;;
72319;SDS011;60269;52.502;16.732;2023-03-12T08:27:19;2.13;;;0.25;;
72319;SDS011;60269;52.502;16.732;2023-03-12T08:30:54;3.10;;;0.20;;
72319;SDS011;60269;52.502;16.732;2023-03-12T08:34:30;0.60;;;0.10;;
72319;SDS011;60269;52.502;16.732;2023-03-12T08:38:02;3.58;;;0.75;;
72319;SDS011;60269;52.502;16.732;2023-03-12T08:41:35;4.55;;;0.32;;
72319;SDS011;60269;52.502;16.732;2023-03-12T08:45:07;3.37;;;0.37;;
72319;SDS011;60269;52.502;16.732;2023-03-12T08:48:40;2.92;;;0.40;;
72319;SDS011;60269;52.502;16.732;2023-03-12T08:52:19;1.85;;;0.20;;
72319;SDS011;60269;52.502;16.732;2023-03-12T08:55:58;2.10;;;0.30;;
72319;SDS011;60269;52.502;16.732;2023-03-12T08:59:31;3.05;;;0.28;;
72319;SDS011;60269;52.502;16.732;2023-03-12T09:03:03;6.05;;;0.40;;
72319;SDS011;60269;52.502;16.732;2023-03-12T09:06:35;1.23;;;0.30;;
72319;SDS011;60269;52.502;16.732;2023-03-12T09:10:09;3.03;;;0.30;;
72319;SDS011;60269;52.502;16.732;2023-03-12T09:13:42;0.82;;;0.20;;
72319;SDS011;60269;52.502;16.732;2023-03-12T09:17:37;5.32;;;0.57;;
72319;SDS011;60269;52.502;16.732;2023-03-12T09:21:11;6.50;;;0.40;;
72319;SDS011;60269;52.502;16.732;2023-03-12T09:24:43;2.95;;;0.55;;
72319;SDS011;60269;52.502;16.732;2023-03-12T09:28:16;0.90;;;0.20;;
72319;SDS011;60269;52.502;16.732;2023-03-12T09:31:50;5.23;;;0.57;;
72319;SDS011;60269;52.502;16.732;2023-03-12T09:35:23;3.38;;;0.25;;
72319;SDS011;60269;52.502;16.732;2023-03-12T09:38:55;13.05;;;0.60;;
72319;SDS011;60269;52.502;16.732;2023-03-12T09:42:40;3.25;;;0.70;;
72319;SDS011;60269;52.502;16.732;2023-03-12T09:46:23;3.23;;;0.30;;
72319;SDS011;60269;52.502;16.732;2023-03-12T09:50:28;6.45;;;0.65;;
72319;SDS011;60269;52.502;16.732;2023-03-12T09:54:05;5.93;;;0.45;;
72319;SDS011;60269;52.502;16.732;2023-03-12T09:57:46;6.13;;;0.50;;
72319;SDS011;60269;52.502;16.732;2023-03-12T10:05:15;3.13;;;0.52;;
72319;SDS011;60269;52.502;16.732;2023-03-12T10:32:34;2.63;;;0.40;;
72319;SDS011;60269;52.502;16.732;2023-03-12T10:36:12;1.20;;;0.33;;
72319;SDS011;60269;52.502;16.732;2023-03-12T10:39:48;6.63;;;0.70;;
72319;SDS011;60269;52.502;16.732;2023-03-12T10:43:20;7.32;;;0.40;;
72319;SDS011;60269;52.502;16.732;2023-03-12T10:51:04;6.20;;;0.57;;
72319;SDS011;60269;52.502;16.732;2023-03-12T10:54:39;2.42;;;0.38;;
72319;SDS011;60269;52.502;16.732;2023-03-12T10:58:21;2.17;;;0.38;;
72319;SDS011;60269;52.502;16.732;2023-03-12T11:01:54;5.00;;;0.40;;
72319;SDS011;60269;52.502;16.732;2023-03-12T11:05:30;5.93;;;0.57;;
72319;SDS011;60269;52.502;16.732;2023-03-12T11:16:27;3.08;;;0.50;;
72319;SDS011;60269;52.502;16.732;2023-03-12T11:20:16;9.27;;;0.90;;
72319;SDS011;60269;52.502;16.732;2023-03-12T11:27:40;2.30;;;0.60;;
72319;SDS011;60269;52.502;16.732;2023-03-12T11:31:24;9.55;;;0.60;;
72319;SDS011;60269;52.502;16.732;2023-03-12T11:34:59;4.95;;;0.70;;
72319;SDS011;60269;52.502;16.732;2023-03-12T11:38:42;3.37;;;0.40;;
72319;SDS011;60269;52.502;16.732;2023-03-12T11:50:11;2.67;;;0.50;;
72319;SDS011;60269;52.502;16.732;2023-03-12T12:09:01;4.95;;;0.60;;
72319;SDS011;60269;52.502;16.732;2023-03-12T12:35:32;5.85;;;1.05;;
72319;SDS011;60269;52.502;16.732;2023-03-12T12:39:09;3.88;;;0.30;;
72319;SDS011;60269;52.502;16.732;2023-03-12T12:42:54;4.27;;;0.90;;
72319;SDS011;60269;52.502;16.732;2023-03-12T12:46:38;5.20;;;0.50;;
72319;SDS011;60269;52.502;16.732;2023-03-12T12:50:16;7.93;;;1.20;;
72319;SDS011;60269;52.502;16.732;2023-03-12T12:57:53;3.30;;;0.50;;
72319;SDS011;60269;52.502;16.732;2023-03-12T13:01:28;4.30;;;0.55;;
72319;SDS011;60269;52.502;16.732;2023-03-12T13:05:02;4.82;;;0.50;;
72319;SDS011;60269;52.502;16.732;2023-03-12T13:12:31;5.75;;;0.60;;
72319;SDS011;60269;52.502;16.732;2023-03-12T13:20:18;3.93;;;0.40;;
72319;SDS011;60269;52.502;16.732;2023-03-12T13:27:38;3.05;;;0.40;;
72319;SDS011;60269;52.502;16.732;2023-03-12T13:34:48;3.47;;;0.60;;
72319;SDS011;60269;52.502;16.732;2023-03-12T13:38:34;2.92;;;0.40;;
72319;SDS011;60269;52.502;16.732;2023-03-12T13:46:05;6.03;;;0.40;;
72319;SDS011;60269;52.502;16.732;2023-03-12T13:53:37;5.35;;;0.60;;
72319;SDS011;60269;52.502;16.732;2023-03-12T13:57:17;2.67;;;0.37;;
72319;SDS011;60269;52.502;16.732;2023-03-12T14:01:34;7.15;;;0.68;;
72319;SDS011;60269;52.502;16.732;2023-03-12T14:05:09;5.75;;;0.50;;
72319;SDS011;60269;52.502;16.732;2023-03-12T14:16:24;2.00;;;0.30;;
72319;SDS011;60269;52.502;16.732;2023-03-12T14:23:51;2.67;;;0.20;;
72319;SDS011;60269;52.502;16.732;2023-03-12T14:27:30;7.63;;;0.40;;
72319;SDS011;60269;52.502;16.732;2023-03-12T14:31:06;3.95;;;0.47;;
72319;SDS011;60269;52.502;16.732;2023-03-12T14:34:45;4.77;;;0.40;;
72319;SDS011;60269;52.502;16.732;2023-03-12T14:38:25;3.47;;;0.57;;
72319;SDS011;60269;52.502;16.732;2023-03-12T14:42:06;4.75;;;0.47;;
72319;SDS011;60269;52.502;16.732;2023-03-12T14:45:39;3.67;;;0.40;;
72319;SDS011;60269;52.502;16.732;2023-03-12T14:49:18;5.97;;;0.80;;
72319;SDS011;60269;52.502;16.732;2023-03-12T14:52:51;4.53;;;0.70;;
72319;SDS011;60269;52.502;16.732;2023-03-12T14:56:25;4.28;;;0.60;;
72319;SDS011;60269;52.502;16.732;2023-03-12T15:00:01;2.10;;;0.30;;
72319;SDS011;60269;52.502;16.732;2023-03-12T15:03:39;2.45;;;0.40;;
72319;SDS011;60269;52.502;16.732;2023-03-12T15:07:14;3.85;;;0.30;;
72319;SDS011;60269;52.502;16.732;2023-03-12T15:10:54;2.67;;;0.30;;
72319;SDS011;60269;52.502;16.732;2023-03-12T15:14:29;3.85;;;0.30;;
72319;SDS011;60269;52.502;16.732;2023-03-12T15:18:05;2.28;;;0.40;;
72319;SDS011;60269;52.502;16.732;2023-03-12T15:21:42;3.47;;;0.30;;
72319;SDS011;60269;52.502;16.732;2023-03-12T15:25:25;3.37;;;0.20;;
72319;SDS011;60269;52.502;16.732;2023-03-12T15:29:20;6.57;;;0.43;;
72319;SDS011;60269;52.502;16.732;2023-03-12T15:33:05;2.80;;;0.40;;
72319;SDS011;60269;52.502;16.732;2023-03-12T15:36:47;3.37;;;0.40;;
72319;SDS011;60269;52.502;16.732;2023-03-12T15:40:22;6.45;;;0.47;;
72319;SDS011;60269;52.502;16.732;2023-03-12T15:43:56;3.60;;;0.40;;
72319;SDS011;60269;52.502;16.732;2023-03-12T15:47:30;6.50;;;0.83;;
72319;SDS011;60269;52.502;16.732;2023-03-12T15:51:14;4.55;;;0.95;;
72319;SDS011;60269;52.502;16.732;2023-03-12T15:55:00;5.28;;;0.70;;
72319;SDS011;60269;52.502;16.732;2023-03-12T16:06:29;9.35;;;1.52;;
72319;SDS011;60269;52.502;16.732;2023-03-12T16:10:01;5.38;;;1.05;;
72319;SDS011;60269;52.502;16.732;2023-03-12T16:13:34;5.43;;;0.73;;
72319;SDS011;60269;52.502;16.732;2023-03-12T16:17:16;7.63;;;0.95;;
72319;SDS011;60269;52.502;16.732;2023-03-12T16:20:50;2.97;;;0.50;;
72319;SDS011;60269;52.502;16.732;2023-03-12T16:24:23;7.03;;;1.13;;
72319;SDS011;60269;52.502;16.732;2023-03-12T16:27:56;6.15;;;0.60;;
72319;SDS011;60269;52.502;16.732;2023-03-12T16:31:30;5.05;;;0.70;;
72319;SDS011;60269;52.502;16.732;2023-03-12T16:35:08;4.15;;;0.75;;
72319;SDS011;60269;52.502;16.732;2023-03-12T16:38:42;5.17;;;0.70;;
72319;SDS011;60269;52.502;16.732;2023-03-12T16:42:15;4.72;;;0.88;;
72319;SDS011;60269;52.502;16.732;2023-03-12T16:45:50;7.90;;;1.40;;
72319;SDS011;60269;52.502;16.732;2023-03-12T16:49:23;5.60;;;1.10;;
72319;SDS011;60269;52.502;16.732;2023-03-12T16:52:56;10.60;;;1.90;;
72319;SDS011;60269;52.502;16.732;2023-03-12T16:56:29;6.57;;;1.23;;
72319;SDS011;60269;52.502;16.732;2023-03-12T17:00:02;12.50;;;2.50;;
72319;SDS011;60269;52.502;16.732;2023-03-12T17:03:39;10.48;;;2.42;;
72319;SDS011;60269;52.502;16.732;2023-03-12T17:07:14;14.43;;;3.55;;
72319;SDS011;60269;52.502;16.732;2023-03-12T17:10:46;16.35;;;4.50;;
72319;SDS011;60269;52.502;16.732;2023-03-12T17:14:19;17.57;;;3.80;;
72319;SDS011;60269;52.502;16.732;2023-03-12T17:17:55;14.93;;;4.07;;
72319;SDS011;60269;52.502;16.732;2023-03-12T17:21:29;13.65;;;3.65;;
72319;SDS011;60269;52.502;16.732;2023-03-12T17:25:02;11.47;;;3.20;;
72319;SDS011;60269;52.502;16.732;2023-03-12T17:28:35;14.88;;;3.78;;
72319;SDS011;60269;52.502;16.732;2023-03-12T17:32:08;9.02;;;2.58;;
72319;SDS011;60269;52.502;16.732;2023-03-12T17:35:40;12.67;;;3.47;;
72319;SDS011;60269;52.502;16.732;2023-03-12T17:39:13;16.90;;;3.70;;
72319;SDS011;60269;52.502;16.732;2023-03-12T17:42:46;10.68;;;2.60;;
72319;SDS011;60269;52.502;16.732;2023-03-12T17:46:18;11.20;;;3.05;;
72319;SDS011;60269;52.502;16.732;2023-03-12T17:49:50;11.93;;;3.63;;
72319;SDS011;60269;52.502;16.732;2023-03-12T17:53:22;18.40;;;3.70;;
72319;SDS011;60269;52.502;16.732;2023-03-12T17:56:55;13.90;;;3.42;;
72319;SDS011;60269;52.502;16.732;2023-03-12T18:00:28;14.40;;;2.93;;
72319;SDS011;60269;52.502;16.732;2023-03-12T18:04:00;15.30;;;2.78;;
72319;SDS011;60269;52.502;16.732;2023-03-12T18:07:33;9.07;;;3.10;;
72319;SDS011;60269;52.502;16.732;2023-03-12T18:11:05;14.87;;;3.17;;
72319;SDS011;60269;52.502;16.732;2023-03-12T18:14:38;10.73;;;3.60;;
72319;SDS011;60269;52.502;16.732;2023-03-12T18:18:10;12.70;;;3.95;;
72319;SDS011;60269;52.502;16.732;2023-03-12T18:21:43;13.88;;;4.10;;
72319;SDS011;60269;52.502;16.732;2023-03-12T18:25:15;15.90;;;4.10;;
72319;SDS011;60269;52.502;16.732;2023-03-12T18:28:47;15.95;;;4.25;;
72319;SDS011;60269;52.502;16.732;2023-03-12T18:32:20;15.48;;;4.93;;
72319;SDS011;60269;52.502;16.732;2023-03-12T18:35:52;15.80;;;3.67;;
72319;SDS011;60269;52.502;16.732;2023-03-12T18:39:26;13.38;;;3.63;;
72319;SDS011;60269;52.502;16.732;2023-03-12T18:42:58;13.10;;;3.90;;
72319;SDS011;60269;52.502;16.732;2023-03-12T18:46:31;15.80;;;3.90;;
72319;SDS011;60269;52.502;16.732;2023-03-12T18:50:04;12.20;;;3.35;;
72319;SDS011;60269;52.502;16.732;2023-03-12T18:53:38;11.98;;;2.80;;
72319;SDS011;60269;52.502;16.732;2023-03-12T18:57:10;10.98;;;2.40;;
72319;SDS011;60269;52.502;16.732;2023-03-12T19:00:44;10.13;;;2.70;;
72319;SDS011;60269;52.502;16.732;2023-03-12T19:04:17;11.35;;;2.85;;
72319;SDS011;60269;52.502;16.732;2023-03-12T19:07:51;10.80;;;2.78;;
72319;SDS011;60269;52.502;16.732;2023-03-12T19:11:23;9.07;;;2.13;;
72319;SDS011;60269;52.502;16.732;2023-03-12T19:14:57;10.88;;;2.47;;
72319;SDS011;60269;52.502;16.732;2023-03-12T19:18:32;12.75;;;2.88;;
72319;SDS011;60269;52.502;16.732;2023-03-12T19:22:07;16.33;;;2.43;;
72319;SDS011;60269;52.502;16.732;2023-03-12T19:25:39;9.65;;;2.88;;
72319;SDS011;60269;52.502;16.732;2023-03-12T19:29:11;12.35;;;2.70;;
72319;SDS011;60269;52.502;16.732;2023-03-12T19:32:45;12.60;;;2.90;;
72319;SDS011;60269;52.502;16.732;2023-03-12T19:36:20;15.60;;;3.47;;
72319;SDS011;60269;52.502;16.732;2023-03-12T19:39:52;12.63;;;3.17;;
72319;SDS011;60269;52.502;16.732;2023-03-12T19:43:25;11.88;;;2.72;;
72319;SDS011;60269;52.502;16.732;2023-03-12T19:46:57;13.03;;;3.17;;
72319;SDS011;60269;52.502;16.732;2023-03-12T19:50:29;12.70;;;3.13;;
72319;SDS011;60269;52.502;16.732;2023-03-12T19:54:01;12.95;;;3.00;;
72319;SDS011;60269;52.502;16.732;2023-03-12T19:57:33;9.23;;;2.57;;
72319;SDS011;60269;52.502;16.732;2023-03-12T20:01:05;9.70;;;2.05;;
72319;SDS011;60269;52.502;16.732;2023-03-12T20:04:38;12.65;;;2.97;;
72319;SDS011;60269;52.502;16.732;2023-03-12T20:08:10;8.85;;;2.60;;
72319;SDS011;60269;52.502;16.732;2023-03-12T20:11:42;12.30;;;2.80;;
72319;SDS011;60269;52.502;16.732;2023-03-12T20:15:15;8.73;;;2.33;;
72319;SDS011;60269;52.502;16.732;2023-03-12T20:18:47;11.20;;;2.20;;
72319;SDS011;60269;52.502;16.732;2023-03-12T20:22:19;6.60;;;1.00;;
72319;SDS011;60269;52.502;16.732;2023-03-12T20:25:52;6.22;;;0.75;;
72319;SDS011;60269;52.502;16.732;2023-03-12T20:29:24;3.47;;;0.80;;
72319;SDS011;60269;52.502;16.732;2023-03-12T20:32:56;6.33;;;0.50;;
72319;SDS011;60269;52.502;16.732;2023-03-12T20:36:29;2.20;;;0.47;;
72319;SDS011;60269;52.502;16.732;2023-03-12T20:40:02;4.97;;;0.95;;
72319;SDS011;60269;52.502;16.732;2023-03-12T20:43:36;6.13;;;1.50;;
72319;SDS011;60269;52.502;16.732;2023-03-12T20:47:08;6.30;;;0.77;;
72319;SDS011;60269;52.502;16.732;2023-03-12T20:50:41;5.90;;;1.45;;
72319;SDS011;60269;52.502;16.732;2023-03-12T20:54:13;6.70;;;1.10;;
72319;SDS011;60269;52.502;16.732;2023-03-12T20:57:45;1.67;;;0.37;;
72319;SDS011;60269;52.502;16.732;2023-03-12T21:01:18;9.60;;;1.67;;
72319;SDS011;60269;52.502;16.732;2023-03-12T21:04:50;5.20;;;1.13;;
72319;SDS011;60269;52.502;16.732;2023-03-12T21:08:23;6.13;;;1.70;;
72319;SDS011;60269;52.502;16.732;2023-03-12T21:11:55;11.13;;;2.08;;
72319;SDS011;60269;52.502;16.732;2023-03-12T21:15:28;6.53;;;1.55;;
72319;SDS011;60269;52.502;16.732;2023-03-12T21:19:00;6.95;;;1.70;;
72319;SDS011;60269;52.502;16.732;2023-03-12T21:22:32;5.67;;;1.30;;
72319;SDS011;60269;52.502;16.732;2023-03-12T21:26:05;7.28;;;1.55;;
72319;SDS011;60269;52.502;16.732;2023-03-12T21:29:40;12.90;;;1.98;;
72319;SDS011;60269;52.502;16.732;2023-03-12T21:33:12;8.63;;;2.23;;
72319;SDS011;60269;52.502;16.732;2023-03-12T21:36:44;7.00;;;1.95;;
72319;SDS011;60269;52.502;16.732;2023-03-12T21:40:17;9.98;;;3.05;;
72319;SDS011;60269;52.502;16.732;2023-03-12T21:43:51;10.87;;;3.60;;
72319;SDS011;60269;52.502;16.732;2023-03-12T21:47:23;11.88;;;3.25;;
72319;SDS011;60269;52.502;16.732;2023-03-12T21:50:59;8.88;;;2.50;;
72319;SDS011;60269;52.502;16.732;2023-03-12T21:54:33;7.20;;;2.08;;
72319;SDS011;60269;52.502;16.732;2023-03-12T21:58:05;8.23;;;2.53;;
72319;SDS011;60269;52.502;16.732;2023-03-12T22:01:37;9.43;;;2.90;;
72319;SDS011;60269;52.502;16.732;2023-03-12T22:05:12;10.40;;;2.90;;
72319;SDS011;60269;52.502;16.732;2023-03-12T22:08:47;11.10;;;2.83;;
72319;SDS011;60269;52.502;16.732;2023-03-12T22:12:20;10.23;;;2.45;;
72319;SDS011;60269;52.502;16.732;2023-03-12T22:15:52;14.15;;;3.75;;
72319;SDS011;60269;52.502;16.732;2023-03-12T22:19:26;14.83;;;3.30;;
72319;SDS011;60269;52.502;16.732;2023-03-12T22:22:59;12.55;;;3.22;;
72319;SDS011;60269;52.502;16.732;2023-03-12T22:26:31;11.10;;;3.10;;
72319;SDS011;60269;52.502;16.732;2023-03-12T22:30:04;15.50;;;2.97;;
72319;SDS011;60269;52.502;16.732;2023-03-12T22:33:36;11.63;;;3.60;;
72319;SDS011;60269;52.502;16.732;2023-03-12T22:37:14;9.40;;;3.50;;
72319;SDS011;60269;52.502;16.732;2023-03-12T22:40:45;10.60;;;3.70;;
72319;SDS011;60269;52.502;16.732;2023-03-12T22:44:20;10.93;;;3.30;;
72319;SDS011;60269;52.502;16.732;2023-03-12T22:47:52;11.52;;;4.30;;
72319;SDS011;60269;52.502;16.732;2023-03-12T22:51:27;12.45;;;4.30;;
72319;SDS011;60269;52.502;16.732;2023-03-12T22:55:01;10.97;;;3.77;;
72319;SDS011;60269;52.502;16.732;2023-03-12T22:58:34;16.05;;;4.15;;
72319;SDS011;60269;52.502;16.732;2023-03-12T23:02:06;11.63;;;3.60;;
72319;SDS011;60269;52.502;16.732;2023-03-12T23:05:39;12.13;;;3.78;;
72319;SDS011;60269;52.502;16.732;2023-03-12T23:09:14;15.07;;;4.07;;
72319;SDS011;60269;52.502;16.732;2023-03-12T23:12:46;17.85;;;4.57;;
72319;SDS011;60269;52.502;16.732;2023-03-12T23:16:20;11.23;;;3.38;;
72319;SDS011;60269;52.502;16.732;2023-03-12T23:19:54;12.20;;;3.87;;
72319;SDS011;60269;52.502;16.732;2023-03-12T23:23:29;12.98;;;4.03;;
72319;SDS011;60269;52.502;16.732;2023-03-12T23:27:12;11.55;;;4.13;;
72319;SDS011;60269;52.502;16.732;2023-03-12T23:35:24;13.13;;;3.85;;